sensor_id;sensor_type;location;lat;lon;timestamp;P1;durP1;ratioP1;P2;durP2;ratioP2
4634;SDS011;2330;48.158;11.816;2022-11-21T00:00:48;9.50;;;6.95;;
4634;SDS011;2330;48.158;11.816;2022-11-21T00:03:16;1.67;;;1.58;;
4634;SDS011;2330;48.158;11.816;2022-11-21T00:05:44;6.25;;;4.35;;
4634;SDS011;2330;48.158;11.816;2022-11-21T00:08:12;7.40;;;5.15;;
4634;SDS011;2330;48.158;11.816;2022-11-21T00:10:41;5.47;;;4.03;;
4634;SDS011;2330;48.158;11.816;2022-11-21T00:13:26;3.65;;;3.20;;
4634;SDS011;2330;48.158;11.816;2022-11-21T00:15:53;3.63;;;3.33;;
4634;SDS011;2330;48.158;11.816;2022-11-21T00:18:19;3.97;;;3.67;;
4634;SDS011;2330;48.158;11.816;2022-11-21T00:20:46;3.03;;;2.83;;
4634;SDS011;2330;48.158;11.816;2022-11-21T00:23:13;1.90;;;1.80;;
4634;SDS011;2330;48.158;11.816;2022-11-21T00:25:40;2.97;;;2.78;;
4634;SDS011;2330;48.158;11.816;2022-11-21T00:28:06;4.45;;;4.15;;
4634;SDS011;2330;48.158;11.816;2022-11-21T00:30:33;5.03;;;4.63;;
4634;SDS011;2330;48.158;11.816;2022-11-21T00:33:00;5.20;;;4.75;;
4634;SDS011;2330;48.158;11.816;2022-11-21T00:35:27;3.17;;;2.85;;
4634;SDS011;2330;48.158;11.816;2022-11-21T00:37:55;2.70;;;2.60;;
4634;SDS011;2330;48.158;11.816;2022-11-21T00:40:22;1.13;;;1.13;;
4634;SDS011;2330;48.158;11.816;2022-11-21T00:42:48;0.90;;;0.90;;
4634;SDS011;2330;48.158;11.816;2022-11-21T00:45:15;1.30;;;1.30;;
4634;SDS011;2330;48.158;11.816;2022-11-21T00:47:49;1.10;;;1.10;;
4634;SDS011;2330;48.158;11.816;2022-11-21T00:50:16;0.80;;;0.80;;
4634;SDS011;2330;48.158;11.816;2022-11-21T00:52:42;0.60;;;0.60;;
4634;SDS011;2330;48.158;11.816;2022-11-21T00:55:09;0.60;;;0.60;;
4634;SDS011;2330;48.158;11.816;2022-11-21T00:57:36;0.70;;;0.70;;
4634;SDS011;2330;48.158;11.816;2022-11-21T01:00:03;0.68;;;0.60;;
4634;SDS011;2330;48.158;11.816;2022-11-21T01:02:31;0.70;;;0.60;;
4634;SDS011;2330;48.158;11.816;2022-11-21T01:04:58;0.60;;;0.60;;
4634;SDS011;2330;48.158;11.816;2022-11-21T01:07:24;0.82;;;0.60;;
4634;SDS011;2330;48.158;11.816;2022-11-21T01:09:51;0.88;;;0.70;;
4634;SDS011;2330;48.158;11.816;2022-11-21T01:12:18;0.60;;;0.50;;
4634;SDS011;2330;48.158;11.816;2022-11-21T01:14:44;0.60;;;0.60;;
4634;SDS011;2330;48.158;11.816;2022-11-21T01:17:11;0.55;;;0.55;;
4634;SDS011;2330;48.158;11.816;2022-11-21T01:19:38;0.60;;;0.60;;
4634;SDS011;2330;48.158;11.816;2022-11-21T01:22:05;0.82;;;0.75;;
4634;SDS011;2330;48.158;11.816;2022-11-21T01:24:32;0.50;;;0.50;;
4634;SDS011;2330;48.158;11.816;2022-11-21T01:26:58;0.77;;;0.75;;
4634;SDS011;2330;48.158;11.816;2022-11-21T01:29:26;1.30;;;0.75;;
4634;SDS011;2330;48.158;11.816;2022-11-21T01:31:53;0.68;;;0.68;;
4634;SDS011;2330;48.158;11.816;2022-11-21T01:34:20;0.70;;;0.70;;
4634;SDS011;2330;48.158;11.816;2022-11-21T01:36:47;0.90;;;0.70;;
4634;SDS011;2330;48.158;11.816;2022-11-21T01:39:14;0.75;;;0.75;;
4634;SDS011;2330;48.158;11.816;2022-11-21T01:41:42;0.70;;;0.50;;
4634;SDS011;2330;48.158;11.816;2022-11-21T01:46:46;0.80;;;0.70;;
4634;SDS011;2330;48.158;11.816;2022-11-21T01:49:15;1.00;;;1.00;;
4634;SDS011;2330;48.158;11.816;2022-11-21T01:51:55;0.80;;;0.80;;
4634;SDS011;2330;48.158;11.816;2022-11-21T01:57:44;0.80;;;0.70;;
4634;SDS011;2330;48.158;11.816;2022-11-21T02:00:02;0.82;;;0.65;;
4634;SDS011;2330;48.158;11.816;2022-11-21T02:02:35;1.23;;;0.80;;
4634;SDS011;2330;48.158;11.816;2022-11-21T02:05:05;0.60;;;0.60;;
4634;SDS011;2330;48.158;11.816;2022-11-21T02:07:34;0.70;;;0.70;;
4634;SDS011;2330;48.158;11.816;2022-11-21T02:10:06;0.90;;;0.90;;
4634;SDS011;2330;48.158;11.816;2022-11-21T02:12:37;0.70;;;0.70;;
4634;SDS011;2330;48.158;11.816;2022-11-21T02:15:05;1.05;;;0.80;;
4634;SDS011;2330;48.158;11.816;2022-11-21T02:17:32;2.15;;;0.90;;
4634;SDS011;2330;48.158;11.816;2022-11-21T02:19:59;0.70;;;0.70;;
4634;SDS011;2330;48.158;11.816;2022-11-21T02:25:09;0.88;;;0.82;;
4634;SDS011;2330;48.158;11.816;2022-11-21T02:27:39;1.23;;;0.70;;
4634;SDS011;2330;48.158;11.816;2022-11-21T02:30:06;0.70;;;0.70;;
4634;SDS011;2330;48.158;11.816;2022-11-21T02:32:39;0.88;;;0.88;;
4634;SDS011;2330;48.158;11.816;2022-11-21T02:35:07;0.82;;;0.80;;
4634;SDS011;2330;48.158;11.816;2022-11-21T02:37:35;0.57;;;0.57;;
4634;SDS011;2330;48.158;11.816;2022-11-21T02:40:05;1.63;;;0.68;;
4634;SDS011;2330;48.158;11.816;2022-11-21T02:42:50;0.70;;;0.65;;
4634;SDS011;2330;48.158;11.816;2022-11-21T02:45:25;1.17;;;0.90;;
4634;SDS011;2330;48.158;11.816;2022-11-21T02:47:57;2.38;;;0.80;;
4634;SDS011;2330;48.158;11.816;2022-11-21T02:50:30;1.10;;;0.90;;
4634;SDS011;2330;48.158;11.816;2022-11-21T02:52:58;1.70;;;0.70;;
4634;SDS011;2330;48.158;11.816;2022-11-21T02:55:25;0.65;;;0.50;;
4634;SDS011;2330;48.158;11.816;2022-11-21T02:57:52;1.80;;;1.33;;
4634;SDS011;2330;48.158;11.816;2022-11-21T03:00:19;0.95;;;0.70;;
4634;SDS011;2330;48.158;11.816;2022-11-21T03:02:47;1.00;;;0.90;;
4634;SDS011;2330;48.158;11.816;2022-11-21T03:05:14;1.90;;;0.98;;
4634;SDS011;2330;48.158;11.816;2022-11-21T03:07:43;1.83;;;1.00;;
4634;SDS011;2330;48.158;11.816;2022-11-21T03:10:10;1.30;;;0.70;;
4634;SDS011;2330;48.158;11.816;2022-11-21T03:12:38;2.20;;;1.00;;
4634;SDS011;2330;48.158;11.816;2022-11-21T03:15:06;1.40;;;0.90;;
4634;SDS011;2330;48.158;11.816;2022-11-21T03:17:35;4.72;;;1.20;;
4634;SDS011;2330;48.158;11.816;2022-11-21T03:20:02;0.88;;;0.75;;
4634;SDS011;2330;48.158;11.816;2022-11-21T03:22:29;2.10;;;0.73;;
4634;SDS011;2330;48.158;11.816;2022-11-21T03:24:56;1.98;;;0.98;;
4634;SDS011;2330;48.158;11.816;2022-11-21T03:27:23;1.13;;;0.80;;
4634;SDS011;2330;48.158;11.816;2022-11-21T03:29:50;1.60;;;0.80;;
4634;SDS011;2330;48.158;11.816;2022-11-21T03:32:16;2.13;;;1.20;;
4634;SDS011;2330;48.158;11.816;2022-11-21T03:34:43;1.33;;;0.65;;
4634;SDS011;2330;48.158;11.816;2022-11-21T03:37:10;0.90;;;0.70;;
4634;SDS011;2330;48.158;11.816;2022-11-21T03:39:37;0.80;;;0.80;;
4634;SDS011;2330;48.158;11.816;2022-11-21T03:42:03;1.15;;;0.95;;
4634;SDS011;2330;48.158;11.816;2022-11-21T03:44:30;0.90;;;0.90;;
4634;SDS011;2330;48.158;11.816;2022-11-21T03:46:57;3.13;;;0.88;;
4634;SDS011;2330;48.158;11.816;2022-11-21T03:49:23;1.95;;;0.80;;
4634;SDS011;2330;48.158;11.816;2022-11-21T03:51:50;1.48;;;0.90;;
4634;SDS011;2330;48.158;11.816;2022-11-21T03:54:17;0.80;;;0.80;;
4634;SDS011;2330;48.158;11.816;2022-11-21T03:56:44;1.25;;;0.82;;
4634;SDS011;2330;48.158;11.816;2022-11-21T03:59:11;1.08;;;0.93;;
4634;SDS011;2330;48.158;11.816;2022-11-21T04:01:38;0.98;;;0.70;;
4634;SDS011;2330;48.158;11.816;2022-11-21T04:04:04;1.48;;;0.70;;
4634;SDS011;2330;48.158;11.816;2022-11-21T04:06:31;1.42;;;0.80;;
4634;SDS011;2330;48.158;11.816;2022-11-21T04:08:58;1.00;;;0.68;;
4634;SDS011;2330;48.158;11.816;2022-11-21T04:11:25;1.02;;;0.80;;
4634;SDS011;2330;48.158;11.816;2022-11-21T04:13:51;2.25;;;0.75;;
4634;SDS011;2330;48.158;11.816;2022-11-21T04:16:18;1.38;;;0.80;;
4634;SDS011;2330;48.158;11.816;2022-11-21T04:18:45;1.55;;;0.90;;
4634;SDS011;2330;48.158;11.816;2022-11-21T04:21:12;1.73;;;0.95;;
4634;SDS011;2330;48.158;11.816;2022-11-21T04:23:39;1.23;;;0.70;;
4634;SDS011;2330;48.158;11.816;2022-11-21T04:26:06;1.35;;;0.90;;
4634;SDS011;2330;48.158;11.816;2022-11-21T04:28:32;1.20;;;1.10;;
4634;SDS011;2330;48.158;11.816;2022-11-21T04:31:03;1.00;;;0.73;;
4634;SDS011;2330;48.158;11.816;2022-11-21T04:33:35;1.98;;;0.70;;
4634;SDS011;2330;48.158;11.816;2022-11-21T04:36:03;2.15;;;1.00;;
4634;SDS011;2330;48.158;11.816;2022-11-21T04:38:30;2.55;;;1.10;;
4634;SDS011;2330;48.158;11.816;2022-11-21T04:40:57;2.50;;;0.90;;
4634;SDS011;2330;48.158;11.816;2022-11-21T04:43:23;3.05;;;1.13;;
4634;SDS011;2330;48.158;11.816;2022-11-21T04:45:53;1.30;;;0.88;;
4634;SDS011;2330;48.158;11.816;2022-11-21T04:48:19;1.55;;;1.02;;
4634;SDS011;2330;48.158;11.816;2022-11-21T04:50:46;2.25;;;0.90;;
4634;SDS011;2330;48.158;11.816;2022-11-21T04:53:13;0.82;;;0.80;;
4634;SDS011;2330;48.158;11.816;2022-11-21T04:55:40;2.35;;;1.15;;
4634;SDS011;2330;48.158;11.816;2022-11-21T04:58:07;1.00;;;0.75;;
4634;SDS011;2330;48.158;11.816;2022-11-21T05:00:34;1.45;;;0.80;;
4634;SDS011;2330;48.158;11.816;2022-11-21T05:03:04;7.00;;;1.17;;
4634;SDS011;2330;48.158;11.816;2022-11-21T05:05:32;1.13;;;1.00;;
4634;SDS011;2330;48.158;11.816;2022-11-21T05:07:59;3.95;;;1.30;;
4634;SDS011;2330;48.158;11.816;2022-11-21T05:10:25;1.67;;;0.88;;
4634;SDS011;2330;48.158;11.816;2022-11-21T05:12:58;2.08;;;1.00;;
4634;SDS011;2330;48.158;11.816;2022-11-21T05:15:44;2.35;;;1.20;;
4634;SDS011;2330;48.158;11.816;2022-11-21T05:18:12;3.00;;;0.93;;
4634;SDS011;2330;48.158;11.816;2022-11-21T05:20:39;3.17;;;1.13;;
4634;SDS011;2330;48.158;11.816;2022-11-21T05:23:06;1.38;;;0.95;;
4634;SDS011;2330;48.158;11.816;2022-11-21T05:25:32;4.65;;;1.20;;
4634;SDS011;2330;48.158;11.816;2022-11-21T05:27:59;1.80;;;1.20;;
4634;SDS011;2330;48.158;11.816;2022-11-21T05:30:25;1.63;;;1.00;;
4634;SDS011;2330;48.158;11.816;2022-11-21T05:32:52;1.80;;;0.80;;
4634;SDS011;2330;48.158;11.816;2022-11-21T05:35:19;2.55;;;1.20;;
4634;SDS011;2330;48.158;11.816;2022-11-21T05:37:46;3.42;;;1.42;;
4634;SDS011;2330;48.158;11.816;2022-11-21T05:40:13;4.13;;;1.50;;
4634;SDS011;2330;48.158;11.816;2022-11-21T05:42:40;2.55;;;1.00;;
4634;SDS011;2330;48.158;11.816;2022-11-21T05:45:26;1.58;;;1.45;;
4634;SDS011;2330;48.158;11.816;2022-11-21T05:47:53;3.17;;;1.20;;
4634;SDS011;2330;48.158;11.816;2022-11-21T05:50:20;2.38;;;2.17;;
4634;SDS011;2330;48.158;11.816;2022-11-21T05:52:46;3.75;;;3.42;;
4634;SDS011;2330;48.158;11.816;2022-11-21T05:55:13;1.92;;;1.38;;
4634;SDS011;2330;48.158;11.816;2022-11-21T05:57:40;16.10;;;14.13;;
4634;SDS011;2330;48.158;11.816;2022-11-21T06:00:07;15.00;;;11.27;;
4634;SDS011;2330;48.158;11.816;2022-11-21T06:02:34;21.85;;;16.25;;
4634;SDS011;2330;48.158;11.816;2022-11-21T06:05:19;15.77;;;11.23;;
4634;SDS011;2330;48.158;11.816;2022-11-21T06:07:46;3.33;;;2.00;;
4634;SDS011;2330;48.158;11.816;2022-11-21T06:10:13;2.53;;;1.15;;
4634;SDS011;2330;48.158;11.816;2022-11-21T06:12:40;1.10;;;1.00;;
4634;SDS011;2330;48.158;11.816;2022-11-21T06:15:06;2.05;;;1.20;;
4634;SDS011;2330;48.158;11.816;2022-11-21T06:17:33;1.73;;;0.93;;
4634;SDS011;2330;48.158;11.816;2022-11-21T06:20:00;2.30;;;1.15;;
4634;SDS011;2330;48.158;11.816;2022-11-21T06:22:27;4.00;;;3.70;;
4634;SDS011;2330;48.158;11.816;2022-11-21T06:24:54;1.60;;;1.50;;
4634;SDS011;2330;48.158;11.816;2022-11-21T06:27:20;1.45;;;1.35;;
4634;SDS011;2330;48.158;11.816;2022-11-21T06:29:47;2.80;;;1.50;;
4634;SDS011;2330;48.158;11.816;2022-11-21T06:32:14;1.80;;;1.10;;
4634;SDS011;2330;48.158;11.816;2022-11-21T06:34:40;1.25;;;0.80;;
4634;SDS011;2330;48.158;11.816;2022-11-21T06:37:07;0.80;;;0.80;;
4634;SDS011;2330;48.158;11.816;2022-11-21T06:39:34;1.33;;;1.23;;
4634;SDS011;2330;48.158;11.816;2022-11-21T06:42:01;4.28;;;2.10;;
4634;SDS011;2330;48.158;11.816;2022-11-21T06:44:27;0.80;;;0.80;;
4634;SDS011;2330;48.158;11.816;2022-11-21T06:46:55;2.33;;;0.93;;
4634;SDS011;2330;48.158;11.816;2022-11-21T06:49:21;2.75;;;1.23;;
4634;SDS011;2330;48.158;11.816;2022-11-21T06:51:48;1.13;;;0.88;;
4634;SDS011;2330;48.158;11.816;2022-11-21T06:54:15;2.10;;;0.70;;
4634;SDS011;2330;48.158;11.816;2022-11-21T06:56:43;0.75;;;0.70;;
4634;SDS011;2330;48.158;11.816;2022-11-21T06:59:10;1.08;;;0.98;;
4634;SDS011;2330;48.158;11.816;2022-11-21T07:01:36;1.00;;;0.80;;
4634;SDS011;2330;48.158;11.816;2022-11-21T07:04:03;1.38;;;1.05;;
4634;SDS011;2330;48.158;11.816;2022-11-21T07:06:30;1.48;;;1.20;;
4634;SDS011;2330;48.158;11.816;2022-11-21T07:08:57;1.13;;;0.90;;
4634;SDS011;2330;48.158;11.816;2022-11-21T07:11:43;1.83;;;1.20;;
4634;SDS011;2330;48.158;11.816;2022-11-21T07:14:10;0.88;;;0.88;;
4634;SDS011;2330;48.158;11.816;2022-11-21T07:16:37;2.25;;;1.13;;
4634;SDS011;2330;48.158;11.816;2022-11-21T07:19:03;1.92;;;1.25;;
4634;SDS011;2330;48.158;11.816;2022-11-21T07:21:30;1.60;;;0.85;;
4634;SDS011;2330;48.158;11.816;2022-11-21T07:23:58;0.75;;;0.75;;
4634;SDS011;2330;48.158;11.816;2022-11-21T07:26:24;2.75;;;0.90;;
4634;SDS011;2330;48.158;11.816;2022-11-21T07:28:52;1.77;;;0.82;;
4634;SDS011;2330;48.158;11.816;2022-11-21T07:31:18;1.45;;;0.70;;
4634;SDS011;2330;48.158;11.816;2022-11-21T07:33:45;1.85;;;0.70;;
4634;SDS011;2330;48.158;11.816;2022-11-21T07:36:13;0.80;;;0.68;;
4634;SDS011;2330;48.158;11.816;2022-11-21T07:38:41;3.70;;;0.80;;
4634;SDS011;2330;48.158;11.816;2022-11-21T07:41:08;3.45;;;0.90;;
4634;SDS011;2330;48.158;11.816;2022-11-21T07:43:34;0.80;;;0.80;;
4634;SDS011;2330;48.158;11.816;2022-11-21T07:46:01;0.93;;;0.60;;
4634;SDS011;2330;48.158;11.816;2022-11-21T07:48:28;1.52;;;1.42;;
4634;SDS011;2330;48.158;11.816;2022-11-21T07:50:55;0.80;;;0.80;;
4634;SDS011;2330;48.158;11.816;2022-11-21T07:53:21;0.90;;;0.50;;
4634;SDS011;2330;48.158;11.816;2022-11-21T07:55:49;0.70;;;0.70;;
4634;SDS011;2330;48.158;11.816;2022-11-21T07:58:15;0.85;;;0.60;;
4634;SDS011;2330;48.158;11.816;2022-11-21T08:00:43;0.82;;;0.80;;
4634;SDS011;2330;48.158;11.816;2022-11-21T08:03:10;2.35;;;0.80;;
4634;SDS011;2330;48.158;11.816;2022-11-21T08:05:41;0.85;;;0.85;;
4634;SDS011;2330;48.158;11.816;2022-11-21T08:08:09;0.70;;;0.70;;
4634;SDS011;2330;48.158;11.816;2022-11-21T08:10:38;0.57;;;0.57;;
4634;SDS011;2330;48.158;11.816;2022-11-21T08:13:07;1.10;;;1.10;;
4634;SDS011;2330;48.158;11.816;2022-11-21T08:15:34;0.75;;;0.60;;
4634;SDS011;2330;48.158;11.816;2022-11-21T08:18:14;0.52;;;0.52;;
4634;SDS011;2330;48.158;11.816;2022-11-21T08:20:45;0.60;;;0.60;;
4634;SDS011;2330;48.158;11.816;2022-11-21T08:23:12;0.70;;;0.70;;
4634;SDS011;2330;48.158;11.816;2022-11-21T08:25:39;0.98;;;0.80;;
4634;SDS011;2330;48.158;11.816;2022-11-21T08:28:08;0.60;;;0.52;;
4634;SDS011;2330;48.158;11.816;2022-11-21T08:30:35;1.48;;;0.60;;
4634;SDS011;2330;48.158;11.816;2022-11-21T08:33:03;0.60;;;0.57;;
4634;SDS011;2330;48.158;11.816;2022-11-21T08:35:31;0.88;;;0.60;;
4634;SDS011;2330;48.158;11.816;2022-11-21T08:37:58;1.35;;;0.50;;
4634;SDS011;2330;48.158;11.816;2022-11-21T08:40:26;0.70;;;0.70;;
4634;SDS011;2330;48.158;11.816;2022-11-21T08:42:55;0.50;;;0.50;;
4634;SDS011;2330;48.158;11.816;2022-11-21T08:45:22;0.60;;;0.60;;
4634;SDS011;2330;48.158;11.816;2022-11-21T08:47:50;0.73;;;0.73;;
4634;SDS011;2330;48.158;11.816;2022-11-21T08:50:17;0.70;;;0.70;;
4634;SDS011;2330;48.158;11.816;2022-11-21T08:52:44;2.53;;;0.70;;
4634;SDS011;2330;48.158;11.816;2022-11-21T08:55:10;0.60;;;0.60;;
4634;SDS011;2330;48.158;11.816;2022-11-21T08:57:38;0.93;;;0.60;;
4634;SDS011;2330;48.158;11.816;2022-11-21T09:00:05;1.43;;;0.80;;
4634;SDS011;2330;48.158;11.816;2022-11-21T09:02:33;0.60;;;0.60;;
4634;SDS011;2330;48.158;11.816;2022-11-21T09:05:00;1.43;;;0.90;;
4634;SDS011;2330;48.158;11.816;2022-11-21T09:07:27;1.00;;;0.53;;
4634;SDS011;2330;48.158;11.816;2022-11-21T09:09:54;0.60;;;0.50;;
4634;SDS011;2330;48.158;11.816;2022-11-21T09:12:20;1.35;;;0.80;;
4634;SDS011;2330;48.158;11.816;2022-11-21T09:14:47;1.17;;;0.67;;
4634;SDS011;2330;48.158;11.816;2022-11-21T09:17:32;3.70;;;1.03;;
4634;SDS011;2330;48.158;11.816;2022-11-21T09:20:18;1.20;;;0.70;;
4634;SDS011;2330;48.158;11.816;2022-11-21T09:22:45;0.80;;;0.80;;
4634;SDS011;2330;48.158;11.816;2022-11-21T09:25:12;1.10;;;0.80;;
4634;SDS011;2330;48.158;11.816;2022-11-21T09:27:38;1.30;;;0.90;;
4634;SDS011;2330;48.158;11.816;2022-11-21T09:30:05;2.20;;;0.90;;
4634;SDS011;2330;48.158;11.816;2022-11-21T09:32:32;1.47;;;1.20;;
4634;SDS011;2330;48.158;11.816;2022-11-21T09:34:59;1.60;;;0.87;;
4634;SDS011;2330;48.158;11.816;2022-11-21T09:37:26;2.60;;;1.23;;
4634;SDS011;2330;48.158;11.816;2022-11-21T09:39:52;0.90;;;0.90;;
4634;SDS011;2330;48.158;11.816;2022-11-21T09:45:08;1.53;;;0.83;;
4634;SDS011;2330;48.158;11.816;2022-11-21T09:47:47;3.17;;;0.80;;
4634;SDS011;2330;48.158;11.816;2022-11-21T09:50:21;1.93;;;0.73;;
4634;SDS011;2330;48.158;11.816;2022-11-21T09:52:57;0.73;;;0.70;;
4634;SDS011;2330;48.158;11.816;2022-11-21T09:58:19;1.93;;;1.13;;
4634;SDS011;2330;48.158;11.816;2022-11-21T10:00:50;0.90;;;0.70;;
4634;SDS011;2330;48.158;11.816;2022-11-21T10:03:19;2.83;;;0.93;;
4634;SDS011;2330;48.158;11.816;2022-11-21T10:05:49;2.63;;;0.80;;
4634;SDS011;2330;48.158;11.816;2022-11-21T10:08:27;2.80;;;0.90;;
4634;SDS011;2330;48.158;11.816;2022-11-21T10:11:15;3.73;;;1.50;;
4634;SDS011;2330;48.158;11.816;2022-11-21T10:13:49;1.40;;;1.00;;
4634;SDS011;2330;48.158;11.816;2022-11-21T10:17:12;1.80;;;1.10;;
4634;SDS011;2330;48.158;11.816;2022-11-21T10:24:58;2.47;;;0.97;;
4634;SDS011;2330;48.158;11.816;2022-11-21T10:27:38;2.87;;;1.50;;
4634;SDS011;2330;48.158;11.816;2022-11-21T10:30:16;3.80;;;2.00;;
4634;SDS011;2330;48.158;11.816;2022-11-21T10:32:45;2.10;;;1.40;;
4634;SDS011;2330;48.158;11.816;2022-11-21T10:35:22;1.60;;;1.50;;
4634;SDS011;2330;48.158;11.816;2022-11-21T10:37:58;3.80;;;1.70;;
4634;SDS011;2330;48.158;11.816;2022-11-21T10:40:40;1.17;;;0.93;;
4634;SDS011;2330;48.158;11.816;2022-11-21T10:46:15;1.53;;;0.80;;
4634;SDS011;2330;48.158;11.816;2022-11-21T10:48:42;2.63;;;1.37;;
4634;SDS011;2330;48.158;11.816;2022-11-21T10:51:24;4.30;;;1.50;;
4634;SDS011;2330;48.158;11.816;2022-11-21T10:54:16;3.10;;;1.20;;
4634;SDS011;2330;48.158;11.816;2022-11-21T10:57:19;7.13;;;1.80;;
4634;SDS011;2330;48.158;11.816;2022-11-21T10:59:55;4.07;;;1.40;;
4634;SDS011;2330;48.158;11.816;2022-11-21T11:02:36;2.57;;;1.70;;
4634;SDS011;2330;48.158;11.816;2022-11-21T11:05:23;2.03;;;1.10;;
4634;SDS011;2330;48.158;11.816;2022-11-21T11:08:00;1.73;;;1.40;;
4634;SDS011;2330;48.158;11.816;2022-11-21T11:10:35;1.17;;;1.00;;
4634;SDS011;2330;48.158;11.816;2022-11-21T11:13:47;1.80;;;1.17;;
4634;SDS011;2330;48.158;11.816;2022-11-21T11:29:15;2.20;;;1.00;;
4634;SDS011;2330;48.158;11.816;2022-11-21T11:31:48;2.00;;;1.00;;
4634;SDS011;2330;48.158;11.816;2022-11-21T11:34:37;1.60;;;1.00;;
4634;SDS011;2330;48.158;11.816;2022-11-21T11:45:14;4.17;;;1.40;;
4634;SDS011;2330;48.158;11.816;2022-11-21T11:48:07;4.67;;;1.30;;
4634;SDS011;2330;48.158;11.816;2022-11-21T11:53:19;3.70;;;1.20;;
4634;SDS011;2330;48.158;11.816;2022-11-21T11:56:01;3.10;;;1.50;;
4634;SDS011;2330;48.158;11.816;2022-11-21T11:58:51;2.07;;;1.00;;
4634;SDS011;2330;48.158;11.816;2022-11-21T12:01:21;3.03;;;0.80;;
4634;SDS011;2330;48.158;11.816;2022-11-21T12:09:37;2.67;;;0.93;;
4634;SDS011;2330;48.158;11.816;2022-11-21T12:40:35;14.80;;;10.20;;
4634;SDS011;2330;48.158;11.816;2022-11-21T12:43:26;5.00;;;4.60;;
4634;SDS011;2330;48.158;11.816;2022-11-21T12:46:24;1.60;;;1.50;;
4634;SDS011;2330;48.158;11.816;2022-11-21T12:49:02;2.17;;;1.30;;
4634;SDS011;2330;48.158;11.816;2022-11-21T12:55:07;2.47;;;1.67;;
4634;SDS011;2330;48.158;11.816;2022-11-21T12:57:50;3.80;;;2.40;;
4634;SDS011;2330;48.158;11.816;2022-11-21T13:00:31;0.93;;;0.83;;
4634;SDS011;2330;48.158;11.816;2022-11-21T13:03:32;3.70;;;1.20;;
4634;SDS011;2330;48.158;11.816;2022-11-21T13:05:58;4.50;;;1.27;;
4634;SDS011;2330;48.158;11.816;2022-11-21T13:08:28;4.50;;;1.20;;
4634;SDS011;2330;48.158;11.816;2022-11-21T13:11:07;3.40;;;1.20;;
4634;SDS011;2330;48.158;11.816;2022-11-21T13:14:01;1.93;;;1.07;;
4634;SDS011;2330;48.158;11.816;2022-11-21T13:16:39;4.17;;;1.30;;
4634;SDS011;2330;48.158;11.816;2022-11-21T13:19:29;1.30;;;0.97;;
4634;SDS011;2330;48.158;11.816;2022-11-21T13:22:02;2.47;;;1.23;;
4634;SDS011;2330;48.158;11.816;2022-11-21T13:27:33;1.90;;;1.40;;
4634;SDS011;2330;48.158;11.816;2022-11-21T13:32:35;2.03;;;1.40;;
4634;SDS011;2330;48.158;11.816;2022-11-21T13:38:00;5.03;;;1.00;;
4634;SDS011;2330;48.158;11.816;2022-11-21T13:45:54;1.50;;;1.10;;
4634;SDS011;2330;48.158;11.816;2022-11-21T13:48:49;1.43;;;1.00;;
4634;SDS011;2330;48.158;11.816;2022-11-21T14:02:47;2.50;;;1.10;;
4634;SDS011;2330;48.158;11.816;2022-11-21T14:05:45;1.10;;;0.80;;
4634;SDS011;2330;48.158;11.816;2022-11-21T14:08:21;1.13;;;1.00;;
4634;SDS011;2330;48.158;11.816;2022-11-21T14:10:50;2.60;;;0.97;;
4634;SDS011;2330;48.158;11.816;2022-11-21T14:13:31;3.27;;;1.13;;
4634;SDS011;2330;48.158;11.816;2022-11-21T14:18:31;4.63;;;1.63;;
4634;SDS011;2330;48.158;11.816;2022-11-21T14:20:59;2.43;;;1.10;;
4634;SDS011;2330;48.158;11.816;2022-11-21T14:23:28;3.40;;;2.83;;
4634;SDS011;2330;48.158;11.816;2022-11-21T14:26:03;6.50;;;3.83;;
4634;SDS011;2330;48.158;11.816;2022-11-21T14:28:37;7.47;;;5.40;;
4634;SDS011;2330;48.158;11.816;2022-11-21T14:31:05;4.00;;;3.40;;
4634;SDS011;2330;48.158;11.816;2022-11-21T14:33:34;2.07;;;1.70;;
4634;SDS011;2330;48.158;11.816;2022-11-21T14:38:53;5.23;;;4.20;;
4634;SDS011;2330;48.158;11.816;2022-11-21T14:41:41;4.67;;;1.70;;
4634;SDS011;2330;48.158;11.816;2022-11-21T14:44:14;1.33;;;1.23;;
4634;SDS011;2330;48.158;11.816;2022-11-21T14:46:44;2.30;;;0.90;;
4634;SDS011;2330;48.158;11.816;2022-11-21T14:51:44;2.10;;;1.37;;
4634;SDS011;2330;48.158;11.816;2022-11-21T14:54:23;1.87;;;1.20;;
4634;SDS011;2330;48.158;11.816;2022-11-21T14:56:55;2.23;;;1.80;;
4634;SDS011;2330;48.158;11.816;2022-11-21T14:59:24;3.40;;;2.50;;
4634;SDS011;2330;48.158;11.816;2022-11-21T15:01:58;3.73;;;2.93;;
4634;SDS011;2330;48.158;11.816;2022-11-21T15:04:36;2.40;;;2.10;;
4634;SDS011;2330;48.158;11.816;2022-11-21T15:07:03;3.67;;;2.67;;
4634;SDS011;2330;48.158;11.816;2022-11-21T15:09:30;2.60;;;2.40;;
4634;SDS011;2330;48.158;11.816;2022-11-21T15:12:32;3.50;;;2.53;;
4634;SDS011;2330;48.158;11.816;2022-11-21T15:17:46;4.60;;;4.20;;
4634;SDS011;2330;48.158;11.816;2022-11-21T15:20:38;7.30;;;3.90;;
4634;SDS011;2330;48.158;11.816;2022-11-21T15:23:04;3.60;;;1.70;;
4634;SDS011;2330;48.158;11.816;2022-11-21T15:25:45;2.60;;;2.40;;
4634;SDS011;2330;48.158;11.816;2022-11-21T15:28:16;3.23;;;1.60;;
4634;SDS011;2330;48.158;11.816;2022-11-21T15:30:43;1.23;;;1.13;;
4634;SDS011;2330;48.158;11.816;2022-11-21T15:33:14;5.70;;;2.60;;
4634;SDS011;2330;48.158;11.816;2022-11-21T15:38:39;1.53;;;1.20;;
4634;SDS011;2330;48.158;11.816;2022-11-21T15:43:43;2.83;;;1.40;;
4634;SDS011;2330;48.158;11.816;2022-11-21T15:46:29;1.27;;;1.17;;
4634;SDS011;2330;48.158;11.816;2022-11-21T15:48:58;2.73;;;1.07;;
4634;SDS011;2330;48.158;11.816;2022-11-21T15:51:44;1.20;;;1.10;;
4634;SDS011;2330;48.158;11.816;2022-11-21T15:54:33;2.07;;;1.20;;
4634;SDS011;2330;48.158;11.816;2022-11-21T15:56:59;6.50;;;1.20;;
4634;SDS011;2330;48.158;11.816;2022-11-21T15:59:26;1.63;;;1.10;;
4634;SDS011;2330;48.158;11.816;2022-11-21T16:01:53;1.20;;;1.10;;
4634;SDS011;2330;48.158;11.816;2022-11-21T16:04:20;1.43;;;1.17;;
4634;SDS011;2330;48.158;11.816;2022-11-21T16:06:51;1.40;;;1.23;;
4634;SDS011;2330;48.158;11.816;2022-11-21T16:09:18;3.03;;;1.20;;
4634;SDS011;2330;48.158;11.816;2022-11-21T16:11:45;1.97;;;1.67;;
4634;SDS011;2330;48.158;11.816;2022-11-21T16:14:13;2.40;;;1.60;;
4634;SDS011;2330;48.158;11.816;2022-11-21T16:16:41;2.53;;;1.37;;
4634;SDS011;2330;48.158;11.816;2022-11-21T16:19:12;2.30;;;1.27;;
4634;SDS011;2330;48.158;11.816;2022-11-21T16:21:40;2.00;;;1.50;;
4634;SDS011;2330;48.158;11.816;2022-11-21T16:24:07;1.23;;;1.03;;
4634;SDS011;2330;48.158;11.816;2022-11-21T16:26:33;1.70;;;1.17;;
4634;SDS011;2330;48.158;11.816;2022-11-21T16:29:00;2.47;;;1.50;;
4634;SDS011;2330;48.158;11.816;2022-11-21T16:31:31;2.43;;;1.53;;
4634;SDS011;2330;48.158;11.816;2022-11-21T16:33:58;0.90;;;0.90;;
4634;SDS011;2330;48.158;11.816;2022-11-21T16:36:29;1.67;;;1.20;;
4634;SDS011;2330;48.158;11.816;2022-11-21T16:38:57;1.70;;;1.60;;
4634;SDS011;2330;48.158;11.816;2022-11-21T16:41:35;1.87;;;1.20;;
4634;SDS011;2330;48.158;11.816;2022-11-21T16:44:02;1.20;;;1.10;;
4634;SDS011;2330;48.158;11.816;2022-11-21T16:46:28;1.53;;;1.17;;
4634;SDS011;2330;48.158;11.816;2022-11-21T16:48:59;2.35;;;1.45;;
4634;SDS011;2330;48.158;11.816;2022-11-21T16:51:30;0.90;;;0.90;;
4634;SDS011;2330;48.158;11.816;2022-11-21T16:53:57;2.88;;;1.50;;
4634;SDS011;2330;48.158;11.816;2022-11-21T16:56:30;2.03;;;1.83;;
4634;SDS011;2330;48.158;11.816;2022-11-21T16:58:57;1.50;;;1.40;;
4634;SDS011;2330;48.158;11.816;2022-11-21T17:01:24;2.45;;;1.92;;
4634;SDS011;2330;48.158;11.816;2022-11-21T17:03:53;3.53;;;1.65;;
4634;SDS011;2330;48.158;11.816;2022-11-21T17:06:20;1.95;;;1.85;;
4634;SDS011;2330;48.158;11.816;2022-11-21T17:08:52;4.72;;;1.90;;
4634;SDS011;2330;48.158;11.816;2022-11-21T17:11:23;3.65;;;2.22;;
4634;SDS011;2330;48.158;11.816;2022-11-21T17:13:55;3.67;;;1.92;;
4634;SDS011;2330;48.158;11.816;2022-11-21T17:16:24;2.40;;;2.20;;
4634;SDS011;2330;48.158;11.816;2022-11-21T17:18:58;2.95;;;1.95;;
4634;SDS011;2330;48.158;11.816;2022-11-21T17:21:26;2.47;;;2.13;;
4634;SDS011;2330;48.158;11.816;2022-11-21T17:23:53;4.38;;;3.63;;
4634;SDS011;2330;48.158;11.816;2022-11-21T17:26:21;4.00;;;3.70;;